createdAt,value
2019-01-18T00:00:50.629Z,1016.22
2019-01-18T00:01:50.612Z,1016.22
2019-01-18T00:02:50.298Z,1016.2
2019-01-18T00:03:51.040Z,1016.18
2019-01-18T00:04:50.353Z,1016.22
2019-01-18T00:05:50.279Z,1016.21
2019-01-18T00:06:50.642Z,1016.23
2019-01-18T00:07:50.374Z,1016.26
2019-01-18T00:08:50.469Z,1016.26
2019-01-18T00:09:50.344Z,1016.3
2019-01-18T00:10:50.681Z,1016.31
2019-01-18T00:11:50.226Z,1016.35
2019-01-18T00:12:50.658Z,1016.36
2019-01-18T00:13:50.705Z,1016.38
2019-01-18T00:14:50.822Z,1016.36
2019-01-18T00:15:50.807Z,1016.38
2019-01-18T00:16:50.356Z,1016.37
2019-01-18T00:17:50.776Z,1016.39
2019-01-18T00:18:50.318Z,1016.4
2019-01-18T00:19:50.315Z,1016.41
2019-01-18T00:20:50.745Z,1016.45
2019-01-18T00:21:50.867Z,1016.42
2019-01-18T00:22:50.777Z,1016.47
2019-01-18T00:23:50.784Z,1016.45
2019-01-18T00:24:50.713Z,1016.49
2019-01-18T00:25:50.361Z,1016.49
2019-01-18T00:26:50.346Z,1016.51
2019-01-18T00:27:50.374Z,1016.54
2019-01-18T00:28:50.819Z,1016.53
2019-01-18T00:29:50.384Z,1016.54
2019-01-18T00:30:50.694Z,1016.54
2019-01-18T00:31:50.643Z,1016.52
2019-01-18T00:32:50.223Z,1016.54
2019-01-18T00:33:50.679Z,1016.54
2019-01-18T00:34:50.685Z,1016.53
2019-01-18T00:35:50.221Z,1016.54
2019-01-18T00:36:50.651Z,1016.54
2019-01-18T00:37:50.688Z,1016.6
2019-01-18T00:38:50.324Z,1016.6
2019-01-18T00:39:50.674Z,1016.61
2019-01-18T00:40:50.691Z,1016.56
2019-01-18T00:41:50.334Z,1016.6
2019-01-18T00:42:50.565Z,1016.58
2019-01-18T00:43:50.399Z,1016.62
2019-01-18T00:44:50.320Z,1016.62
2019-01-18T00:45:50.678Z,1016.62
2019-01-18T00:46:53.056Z,1016.59
2019-01-18T00:47:50.951Z,1016.61
2019-01-18T00:48:50.679Z,1016.62
2019-01-18T00:49:51.055Z,1016.66
2019-01-18T00:50:50.868Z,1016.62
2019-01-18T00:51:50.991Z,1016.66
2019-01-18T00:52:50.422Z,1016.64
2019-01-18T00:53:50.393Z,1016.64
2019-01-18T00:54:50.696Z,1016.64
2019-01-18T00:55:51.187Z,1016.66
2019-01-18T00:56:50.278Z,1016.68
2019-01-18T00:57:50.410Z,1016.71
2019-01-18T00:58:50.546Z,1016.71
2019-01-18T00:59:50.335Z,1016.73
2019-01-18T01:00:50.760Z,1016.73
2019-01-18T01:01:50.308Z,1016.81
2019-01-18T01:02:50.903Z,1016.77
2019-01-18T01:03:50.991Z,1016.77
2019-01-18T01:04:51.286Z,1016.79
2019-01-18T01:05:50.459Z,1016.82
2019-01-18T01:06:50.673Z,1016.86
2019-01-18T01:07:51.224Z,1016.85
2019-01-18T01:08:50.803Z,1016.86
2019-01-18T01:09:51.956Z,1016.89
2019-01-18T01:10:50.354Z,1016.89
2019-01-18T01:11:50.596Z,1016.89
2019-01-18T01:12:50.477Z,1016.91
2019-01-18T01:13:50.572Z,1016.93
2019-01-18T01:14:50.433Z,1016.94
2019-01-18T01:15:50.479Z,1016.97
2019-01-18T01:16:50.338Z,1016.98
2019-01-18T01:17:50.764Z,1016.95
2019-01-18T01:18:50.194Z,1017
2019-01-18T01:19:50.598Z,1017.06
2019-01-18T01:20:50.481Z,1017.05
2019-01-18T01:21:51.016Z,1017.07
2019-01-18T01:22:50.259Z,1017.11
2019-01-18T01:23:51.048Z,1017.11
2019-01-18T01:24:50.651Z,1017.1
2019-01-18T01:25:50.583Z,1017.15
2019-01-18T01:26:50.391Z,1017.12
2019-01-18T01:27:50.634Z,1017.13
2019-01-18T01:28:50.309Z,1017.15
2019-01-18T01:29:50.125Z,1017.18
2019-01-18T01:30:50.250Z,1017.18
2019-01-18T01:31:50.549Z,1017.22
2019-01-18T01:32:50.889Z,1017.25
2019-01-18T01:33:50.302Z,1017.23
2019-01-18T01:34:50.440Z,1017.29
2019-01-18T01:35:50.678Z,1017.29
2019-01-18T01:36:50.707Z,1017.31
2019-01-18T01:37:50.273Z,1017.35
2019-01-18T01:38:50.729Z,1017.38
2019-01-18T01:39:50.714Z,1017.4
2019-01-18T01:40:50.334Z,1017.43
2019-01-18T01:41:50.617Z,1017.4
2019-01-18T01:42:50.425Z,1017.43
2019-01-18T01:43:50.627Z,1017.43
2019-01-18T01:44:50.415Z,1017.44
2019-01-18T01:45:50.653Z,1017.45
2019-01-18T01:46:50.604Z,1017.49
2019-01-18T01:47:50.337Z,1017.5
2019-01-18T01:48:50.288Z,1017.52
2019-01-18T01:49:50.547Z,1017.55
2019-01-18T01:50:50.888Z,1017.53
2019-01-18T01:51:50.262Z,1017.56
2019-01-18T01:52:50.231Z,1017.57
2019-01-18T01:53:50.284Z,1017.6
2019-01-18T01:54:50.296Z,1017.61
2019-01-18T01:55:50.323Z,1017.63
2019-01-18T01:56:50.466Z,1017.63
2019-01-18T01:57:50.150Z,1017.65
2019-01-18T01:58:50.586Z,1017.68
2019-01-18T01:59:50.471Z,1017.7
2019-01-18T02:00:50.172Z,1017.67
2019-01-18T02:01:50.327Z,1017.68
2019-01-18T02:02:50.303Z,1017.69
2019-01-18T02:03:51.138Z,1017.73
2019-01-18T02:04:52.191Z,1017.77
2019-01-18T02:05:50.702Z,1017.74
2019-01-18T02:06:50.617Z,1017.73
2019-01-18T02:07:50.474Z,1017.72
2019-01-18T02:08:50.412Z,1017.76
2019-01-18T02:09:50.424Z,1017.8
2019-01-18T02:10:50.593Z,1017.78
2019-01-18T02:11:50.360Z,1017.81
2019-01-18T02:12:50.187Z,1017.8
2019-01-18T02:13:50.280Z,1017.82
2019-01-18T02:14:50.346Z,1017.87
2019-01-18T02:15:50.256Z,1017.85
2019-01-18T02:16:50.402Z,1017.88
2019-01-18T02:17:50.326Z,1017.95
2019-01-18T02:18:50.384Z,1017.97
2019-01-18T02:19:50.304Z,1017.94
2019-01-18T02:20:50.358Z,1017.97
2019-01-18T02:21:50.322Z,1017.94
2019-01-18T02:22:50.659Z,1017.94
2019-01-18T02:23:50.623Z,1017.93
2019-01-18T02:24:50.294Z,1017.98
2019-01-18T02:25:50.409Z,1017.99
2019-01-18T02:26:54.227Z,1018.03
2019-01-18T02:27:50.246Z,1018
2019-01-18T02:28:50.339Z,1018.05
2019-01-18T02:29:56.971Z,1018.1
2019-01-18T02:30:50.303Z,1018.06
2019-01-18T02:31:50.314Z,1018.12
2019-01-18T02:32:50.353Z,1018.1
2019-01-18T02:33:50.712Z,1018.11
2019-01-18T02:34:50.616Z,1018.06
2019-01-18T02:35:52.979Z,1018.06
2019-01-18T02:36:50.246Z,1018.06
2019-01-18T02:37:50.845Z,1018.03
2019-01-18T02:38:50.730Z,1018.09
2019-01-18T02:39:50.366Z,1018.05
2019-01-18T02:40:50.869Z,1018.08
2019-01-18T02:41:51.041Z,1018.02
2019-01-18T02:42:50.882Z,1018.07
2019-01-18T02:43:50.759Z,1018.06
2019-01-18T02:44:50.789Z,1018.07
2019-01-18T02:45:50.742Z,1018.05
2019-01-18T02:46:52.021Z,1018.07
2019-01-18T02:47:50.983Z,1018.09
2019-01-18T02:48:50.433Z,1018.11
2019-01-18T02:49:50.128Z,1018.1
2019-01-18T02:50:50.274Z,1018.1
2019-01-18T02:51:50.508Z,1018.09
2019-01-18T02:52:50.444Z,1018.09
2019-01-18T02:53:50.418Z,1018.1
2019-01-18T02:54:50.638Z,1018.08
2019-01-18T02:55:50.639Z,1018.1
2019-01-18T02:56:50.654Z,1018.12
2019-01-18T02:57:50.433Z,1018.12
2019-01-18T02:58:50.455Z,1018.16
2019-01-18T02:59:50.772Z,1018.15
2019-01-18T03:00:50.436Z,1018.17
2019-01-18T03:01:51.886Z,1018.15
2019-01-18T03:02:50.363Z,1018.16
2019-01-18T03:03:50.997Z,1018.17
2019-01-18T03:04:50.293Z,1018.19
2019-01-18T03:05:51.492Z,1018.2
2019-01-18T03:06:50.386Z,1018.19
2019-01-18T03:07:50.627Z,1018.21
2019-01-18T03:08:50.768Z,1018.25
2019-01-18T03:09:50.541Z,1018.24
2019-01-18T03:10:50.365Z,1018.26
2019-01-18T03:11:50.597Z,1018.28
2019-01-18T03:12:53.013Z,1018.27
2019-01-18T03:13:50.330Z,1018.28
2019-01-18T03:14:50.577Z,1018.3
2019-01-18T03:15:50.251Z,1018.32
2019-01-18T03:16:50.900Z,1018.28
2019-01-18T03:17:50.379Z,1018.31
2019-01-18T03:18:50.184Z,1018.33
2019-01-18T03:19:50.647Z,1018.37
2019-01-18T03:20:52.282Z,1018.37
2019-01-18T03:21:50.285Z,1018.37
2019-01-18T03:22:50.620Z,1018.38
2019-01-18T03:23:50.826Z,1018.34
2019-01-18T03:24:50.442Z,1018.34
2019-01-18T03:25:50.134Z,1018.33
2019-01-18T03:26:50.428Z,1018.37
2019-01-18T03:27:50.282Z,1018.33
2019-01-18T03:28:50.776Z,1018.36
2019-01-18T03:29:50.260Z,1018.39
2019-01-18T03:30:50.274Z,1018.36
2019-01-18T03:31:51.094Z,1018.43
2019-01-18T03:32:50.284Z,1018.4
2019-01-18T03:33:50.529Z,1018.42
2019-01-18T03:34:50.367Z,1018.44
2019-01-18T03:35:50.412Z,1018.45
2019-01-18T03:36:50.145Z,1018.41
2019-01-18T03:37:50.585Z,1018.48
2019-01-18T03:38:51.764Z,1018.47
2019-01-18T03:39:50.565Z,1018.48
2019-01-18T03:40:50.527Z,1018.49
2019-01-18T03:41:50.703Z,1018.54
2019-01-18T03:42:50.539Z,1018.6
2019-01-18T03:43:50.448Z,1018.66
2019-01-18T03:44:50.198Z,1018.64
2019-01-18T03:45:50.574Z,1018.65
2019-01-18T03:46:50.374Z,1018.67
2019-01-18T03:47:50.248Z,1018.71
2019-01-18T03:48:50.375Z,1018.71
2019-01-18T03:49:50.706Z,1018.71
2019-01-18T03:50:50.426Z,1018.72
2019-01-18T03:51:50.506Z,1018.72
2019-01-18T03:52:50.690Z,1018.71
2019-01-18T03:53:50.103Z,1018.75
2019-01-18T03:54:50.235Z,1018.77
2019-01-18T03:55:50.277Z,1018.76
2019-01-18T03:56:50.122Z,1018.76
2019-01-18T03:57:50.307Z,1018.75
2019-01-18T03:58:50.402Z,1018.77
2019-01-18T03:59:50.665Z,1018.79
2019-01-18T04:00:50.234Z,1018.76
2019-01-18T04:01:50.594Z,1018.79
2019-01-18T04:02:50.332Z,1018.75
2019-01-18T04:03:50.310Z,1018.72
2019-01-18T04:04:50.376Z,1018.71
2019-01-18T04:05:50.464Z,1018.77
2019-01-18T04:06:50.633Z,1018.77
2019-01-18T04:07:50.630Z,1018.77
2019-01-18T04:08:50.249Z,1018.75
2019-01-18T04:09:50.462Z,1018.69
2019-01-18T04:10:50.875Z,1018.71
2019-01-18T04:11:50.576Z,1018.75
2019-01-18T04:12:50.341Z,1018.79
2019-01-18T04:13:50.591Z,1018.81
2019-01-18T04:14:50.129Z,1018.83
2019-01-18T04:15:50.135Z,1018.87
2019-01-18T04:16:50.511Z,1018.88
2019-01-18T04:17:50.603Z,1018.92
2019-01-18T04:18:50.717Z,1018.93
2019-01-18T04:19:50.433Z,1018.95
2019-01-18T04:20:52.093Z,1018.94
2019-01-18T04:21:50.745Z,1018.95
2019-01-18T04:22:51.252Z,1018.98
2019-01-18T04:23:50.530Z,1018.99
2019-01-18T04:24:50.962Z,1018.98
2019-01-18T04:25:50.201Z,1019.02
2019-01-18T04:26:50.295Z,1019
2019-01-18T04:27:50.372Z,1018.99
2019-01-18T04:28:50.311Z,1019.04
2019-01-18T04:29:50.928Z,1019.02
2019-01-18T04:30:50.326Z,1019.1
2019-01-18T04:31:50.370Z,1019.09
2019-01-18T04:32:50.251Z,1019.11
2019-01-18T04:33:50.854Z,1019.1
2019-01-18T04:34:50.453Z,1019.13
2019-01-18T04:35:50.405Z,1019.13
2019-01-18T04:36:50.624Z,1019.1
2019-01-18T04:37:51.293Z,1019.14
2019-01-18T04:38:50.690Z,1019.12
2019-01-18T04:39:50.718Z,1019.14
2019-01-18T04:40:50.312Z,1019.19
2019-01-18T04:41:50.157Z,1019.2
2019-01-18T04:42:50.639Z,1019.24
2019-01-18T04:43:50.715Z,1019.25
2019-01-18T04:44:50.681Z,1019.27
2019-01-18T04:45:50.812Z,1019.3
2019-01-18T04:46:50.415Z,1019.27
2019-01-18T04:47:50.930Z,1019.26
2019-01-18T04:48:50.848Z,1019.31
2019-01-18T04:49:50.679Z,1019.28
2019-01-18T04:50:50.279Z,1019.35
2019-01-18T04:51:50.362Z,1019.36
2019-01-18T04:52:50.173Z,1019.34
2019-01-18T04:53:51.515Z,1019.37
2019-01-18T04:54:50.114Z,1019.39
2019-01-18T04:55:50.163Z,1019.39
2019-01-18T04:56:50.279Z,1019.39
2019-01-18T04:57:51.127Z,1019.41
2019-01-18T04:58:50.438Z,1019.43
2019-01-18T04:59:50.933Z,1019.39
2019-01-18T05:00:51.281Z,1019.45
2019-01-18T05:01:50.436Z,1019.47
2019-01-18T05:02:50.171Z,1019.45
2019-01-18T05:03:52.247Z,1019.48
2019-01-18T05:04:50.133Z,1019.52
2019-01-18T05:05:50.518Z,1019.53
2019-01-18T05:06:50.357Z,1019.6
2019-01-18T05:07:50.253Z,1019.57
2019-01-18T05:08:50.356Z,1019.61
2019-01-18T05:09:51.284Z,1019.64
2019-01-18T05:10:51.080Z,1019.69
2019-01-18T05:11:50.465Z,1019.67
2019-01-18T05:12:50.762Z,1019.68
2019-01-18T05:13:50.266Z,1019.66
2019-01-18T05:14:50.633Z,1019.69
2019-01-18T05:15:51.018Z,1019.72
2019-01-18T05:16:50.244Z,1019.74
2019-01-18T05:17:50.622Z,1019.74
2019-01-18T05:18:50.938Z,1019.72
2019-01-18T05:19:50.979Z,1019.75
2019-01-18T05:20:50.327Z,1019.76
2019-01-18T05:21:50.379Z,1019.74
2019-01-18T05:22:50.185Z,1019.76
2019-01-18T05:23:50.812Z,1019.78
2019-01-18T05:24:50.389Z,1019.79
2019-01-18T05:25:50.286Z,1019.84
2019-01-18T05:26:50.799Z,1019.83
2019-01-18T05:27:50.063Z,1019.86
2019-01-18T05:28:50.180Z,1019.88
2019-01-18T05:29:50.218Z,1019.92
2019-01-18T05:30:50.043Z,1019.93
2019-01-18T05:31:50.857Z,1019.98
2019-01-18T05:32:50.666Z,1019.95
2019-01-18T05:33:51.285Z,1019.96
2019-01-18T05:34:50.163Z,1019.99
2019-01-18T05:35:50.715Z,1020.02
2019-01-18T05:36:50.769Z,1020
2019-01-18T05:37:50.244Z,1019.99
2019-01-18T05:38:50.210Z,1020.05
2019-01-18T05:39:50.340Z,1020.04
2019-01-18T05:40:50.427Z,1020
2019-01-18T05:41:50.200Z,1020.02
2019-01-18T05:42:50.610Z,1020.02
2019-01-18T05:43:50.163Z,1020.03
2019-01-18T05:44:50.312Z,1020.04
2019-01-18T05:45:50.354Z,1020.06
2019-01-18T05:46:50.216Z,1020.09
2019-01-18T05:47:50.212Z,1020.11
2019-01-18T05:48:50.413Z,1020.13
2019-01-18T05:49:52.072Z,1020.14
2019-01-18T05:50:50.370Z,1020.14
2019-01-18T05:51:50.276Z,1020.15
2019-01-18T05:52:50.231Z,1020.17
2019-01-18T05:53:50.153Z,1020.17
2019-01-18T05:54:50.343Z,1020.18
2019-01-18T05:55:50.179Z,1020.18
2019-01-18T05:56:50.469Z,1020.16
2019-01-18T05:57:50.238Z,1020.17
2019-01-18T05:58:50.296Z,1020.18
2019-01-18T05:59:50.422Z,1020.2
2019-01-18T06:00:55.845Z,1020.19
2019-01-18T06:01:50.231Z,1020.23
2019-01-18T06:02:50.493Z,1020.21
2019-01-18T06:03:50.666Z,1020.22
2019-01-18T06:04:51.127Z,1020.2
2019-01-18T06:05:50.847Z,1020.23
2019-01-18T06:06:50.521Z,1020.24
2019-01-18T06:07:50.357Z,1020.26
2019-01-18T06:08:50.256Z,1020.27
2019-01-18T06:09:50.060Z,1020.29
2019-01-18T06:10:50.221Z,1020.32
2019-01-18T06:11:50.491Z,1020.3
2019-01-18T06:12:50.237Z,1020.33
2019-01-18T06:13:51.590Z,1020.3
2019-01-18T06:14:50.694Z,1020.33
2019-01-18T06:15:50.695Z,1020.35
2019-01-18T06:16:50.285Z,1020.31
2019-01-18T06:17:50.446Z,1020.34
2019-01-18T06:18:50.520Z,1020.33
2019-01-18T06:19:50.641Z,1020.36
2019-01-18T06:20:51.160Z,1020.33
2019-01-18T06:21:50.169Z,1020.34
2019-01-18T06:22:50.355Z,1020.34
2019-01-18T06:23:50.660Z,1020.31
2019-01-18T06:24:50.180Z,1020.35
2019-01-18T06:25:50.383Z,1020.33
2019-01-18T06:26:50.466Z,1020.36
2019-01-18T06:27:50.613Z,1020.34
2019-01-18T06:28:50.865Z,1020.39
2019-01-18T06:29:50.481Z,1020.37
2019-01-18T06:30:50.290Z,1020.39
2019-01-18T06:31:50.267Z,1020.42
2019-01-18T06:32:50.745Z,1020.42
2019-01-18T06:33:50.081Z,1020.47
2019-01-18T06:34:52.193Z,1020.48
2019-01-18T06:35:52.984Z,1020.51
2019-01-18T06:36:50.438Z,1020.54
2019-01-18T06:37:50.728Z,1020.52
2019-01-18T06:38:50.586Z,1020.53
2019-01-18T06:39:50.375Z,1020.52
2019-01-18T06:40:51.211Z,1020.53
2019-01-18T06:41:51.794Z,1020.48
2019-01-18T06:42:50.390Z,1020.49
2019-01-18T06:43:50.358Z,1020.49
2019-01-18T06:44:50.727Z,1020.5
2019-01-18T06:45:50.623Z,1020.51
2019-01-18T06:46:51.093Z,1020.52
2019-01-18T06:47:50.522Z,1020.5
2019-01-18T06:48:50.905Z,1020.53
2019-01-18T06:49:50.603Z,1020.59
2019-01-18T06:50:50.253Z,1020.62
2019-01-18T06:51:50.566Z,1020.62
2019-01-18T06:52:50.788Z,1020.65
2019-01-18T06:53:50.777Z,1020.67
2019-01-18T06:54:50.200Z,1020.69
2019-01-18T06:55:50.680Z,1020.71
2019-01-18T06:56:50.369Z,1020.72
2019-01-18T06:57:50.426Z,1020.7
2019-01-18T06:58:50.421Z,1020.74
2019-01-18T06:59:50.131Z,1020.77
2019-01-18T07:00:51.010Z,1020.77
2019-01-18T07:01:52.022Z,1020.76
2019-01-18T07:02:50.439Z,1020.78
2019-01-18T07:03:50.281Z,1020.77
2019-01-18T07:04:50.593Z,1020.78
2019-01-18T07:05:52.103Z,1020.77
2019-01-18T07:06:50.196Z,1020.76
2019-01-18T07:07:50.859Z,1020.79
2019-01-18T07:08:50.384Z,1020.78
2019-01-18T07:09:50.486Z,1020.86
2019-01-18T07:10:50.822Z,1020.83
2019-01-18T07:11:50.071Z,1020.87
2019-01-18T07:12:50.219Z,1020.88
2019-01-18T07:13:52.014Z,1020.87
2019-01-18T07:14:50.328Z,1020.89
2019-01-18T07:15:50.346Z,1020.95
2019-01-18T07:16:51.040Z,1020.96
2019-01-18T07:17:50.344Z,1020.97
2019-01-18T07:18:50.221Z,1021.01
2019-01-18T07:19:50.285Z,1021.02
2019-01-18T07:20:50.430Z,1020.99
2019-01-18T07:21:50.658Z,1021.06
2019-01-18T07:22:50.298Z,1021.06
2019-01-18T07:23:50.116Z,1021.06
2019-01-18T07:24:50.197Z,1021.1
2019-01-18T07:25:50.315Z,1021.09
2019-01-18T07:26:50.187Z,1021.07
2019-01-18T07:27:50.309Z,1021.09
2019-01-18T07:28:51.929Z,1021.08
2019-01-18T07:29:50.105Z,1021.08
2019-01-18T07:30:50.042Z,1021.11
2019-01-18T07:31:50.279Z,1021.11
2019-01-18T07:32:50.442Z,1021.13
2019-01-18T07:33:50.464Z,1021.14
2019-01-18T07:34:50.526Z,1021.15
2019-01-18T07:35:50.396Z,1021.2
2019-01-18T07:36:50.348Z,1021.17
2019-01-18T07:37:50.305Z,1021.26
2019-01-18T07:38:50.114Z,1021.2
2019-01-18T07:39:50.299Z,1021.21
2019-01-18T07:40:50.460Z,1021.22
2019-01-18T07:41:50.433Z,1021.28
2019-01-18T07:42:50.526Z,1021.25
2019-01-18T07:43:50.310Z,1021.3
2019-01-18T07:44:50.739Z,1021.25
2019-01-18T07:45:50.239Z,1021.31
2019-01-18T07:46:50.530Z,1021.32
2019-01-18T07:47:51.064Z,1021.32
2019-01-18T07:48:50.996Z,1021.35
2019-01-18T07:49:50.261Z,1021.38
2019-01-18T07:50:50.298Z,1021.42
2019-01-18T07:51:50.458Z,1021.44
2019-01-18T07:52:50.592Z,1021.49
2019-01-18T07:53:50.812Z,1021.52
2019-01-18T07:54:50.084Z,1021.52
2019-01-18T07:55:50.513Z,1021.56
2019-01-18T07:56:50.405Z,1021.57
2019-01-18T07:57:50.256Z,1021.61
2019-01-18T07:58:50.283Z,1021.61
2019-01-18T07:59:50.849Z,1021.64
2019-01-18T08:00:50.502Z,1021.6
2019-01-18T08:01:51.073Z,1021.62
2019-01-18T08:02:50.588Z,1021.62
2019-01-18T08:03:50.643Z,1021.63
2019-01-18T08:04:50.258Z,1021.65
2019-01-18T08:05:51.663Z,1021.66
2019-01-18T08:06:50.286Z,1021.67
2019-01-18T08:07:50.657Z,1021.65
2019-01-18T08:08:50.580Z,1021.63
2019-01-18T08:09:50.276Z,1021.64
2019-01-18T08:10:50.523Z,1021.66
2019-01-18T08:11:50.496Z,1021.66
2019-01-18T08:12:51.470Z,1021.64
2019-01-18T08:13:50.495Z,1021.64
2019-01-18T08:14:50.548Z,1021.65
2019-01-18T08:15:50.044Z,1021.69
2019-01-18T08:16:50.553Z,1021.69
2019-01-18T08:17:50.543Z,1021.71
2019-01-18T08:18:50.323Z,1021.72
2019-01-18T08:19:51.258Z,1021.76
2019-01-18T08:20:50.339Z,1021.8
2019-01-18T08:21:50.367Z,1021.8
2019-01-18T08:22:50.206Z,1021.89
2019-01-18T08:23:50.290Z,1021.85
2019-01-18T08:24:50.885Z,1021.84
2019-01-18T08:25:51.091Z,1021.85
2019-01-18T08:26:50.693Z,1021.83
2019-01-18T08:27:51.239Z,1021.86
2019-01-18T08:28:51.072Z,1021.85
2019-01-18T08:29:50.794Z,1021.88
2019-01-18T08:30:50.387Z,1021.83
2019-01-18T08:31:50.670Z,1021.87
2019-01-18T08:32:50.135Z,1021.91
2019-01-18T08:33:50.349Z,1021.92
2019-01-18T08:34:50.051Z,1021.94
2019-01-18T08:35:50.266Z,1021.96
2019-01-18T08:36:50.371Z,1021.98
2019-01-18T08:37:50.483Z,1022.01
2019-01-18T08:38:50.330Z,1021.95
2019-01-18T08:39:52.248Z,1022.03
2019-01-18T08:40:50.218Z,1022
2019-01-18T08:41:50.554Z,1022
2019-01-18T08:42:51.235Z,1022.05
2019-01-18T08:43:52.070Z,1022.02
2019-01-18T08:44:50.552Z,1022.06
2019-01-18T08:45:50.744Z,1022.09
2019-01-18T08:46:50.287Z,1022.11
2019-01-18T08:47:50.682Z,1022.13
2019-01-18T08:48:50.147Z,1022.14
2019-01-18T08:49:50.377Z,1022.18
2019-01-18T08:50:50.269Z,1022.14
2019-01-18T08:51:50.779Z,1022.15
2019-01-18T08:52:50.243Z,1022.17
2019-01-18T08:53:50.217Z,1022.16
2019-01-18T08:54:50.309Z,1022.2
2019-01-18T08:55:50.313Z,1022.24
2019-01-18T08:56:50.168Z,1022.22
2019-01-18T08:57:49.999Z,1022.2
2019-01-18T08:58:50.729Z,1022.26
2019-01-18T08:59:50.654Z,1022.25
2019-01-18T09:00:51.987Z,1022.23
2019-01-18T09:01:50.808Z,1022.23
2019-01-18T09:02:52.155Z,1022.22
2019-01-18T09:03:50.964Z,1022.21
2019-01-18T09:04:50.222Z,1022.22
2019-01-18T09:05:50.584Z,1022.23
2019-01-18T09:06:50.271Z,1022.22
2019-01-18T09:07:50.405Z,1022.22
2019-01-18T09:08:50.223Z,1022.21
2019-01-18T09:09:25.937Z,1022.2
2019-01-18T09:10:50.517Z,1022.22
2019-01-18T09:11:50.671Z,1022.2
2019-01-18T09:12:50.736Z,1022.2
2019-01-18T09:13:50.307Z,1022.2
2019-01-18T09:14:50.640Z,1022.2
2019-01-18T09:15:50.718Z,1022.16
2019-01-18T09:16:50.582Z,1022.17
2019-01-18T09:17:50.710Z,1022.19
2019-01-18T09:18:50.704Z,1022.22
2019-01-18T09:19:50.353Z,1022.2
2019-01-18T09:20:50.546Z,1022.26
2019-01-18T09:21:50.697Z,1022.24
2019-01-18T09:22:50.399Z,1022.27
2019-01-18T09:23:50.339Z,1022.32
2019-01-18T09:24:50.521Z,1022.32
2019-01-18T09:25:50.758Z,1022.34
2019-01-18T09:26:50.762Z,1022.35
2019-01-18T09:27:50.828Z,1022.36
2019-01-18T09:28:50.720Z,1022.39
2019-01-18T09:29:50.695Z,1022.42
2019-01-18T09:30:50.787Z,1022.43
2019-01-18T09:31:51.003Z,1022.44
2019-01-18T09:32:50.885Z,1022.45
2019-01-18T09:33:50.826Z,1022.47
2019-01-18T09:34:52.199Z,1022.46
2019-01-18T09:35:50.390Z,1022.49
2019-01-18T09:36:51.256Z,1022.52
2019-01-18T09:37:50.931Z,1022.47
2019-01-18T09:38:51.166Z,1022.49
2019-01-18T09:39:50.957Z,1022.49
2019-01-18T09:40:51.066Z,1022.5
2019-01-18T09:41:51.817Z,1022.48
2019-01-18T09:42:50.475Z,1022.51
2019-01-18T09:43:50.906Z,1022.5
2019-01-18T09:44:50.469Z,1022.52
2019-01-18T09:45:50.532Z,1022.55
2019-01-18T09:46:50.547Z,1022.55
2019-01-18T09:47:50.622Z,1022.57
2019-01-18T09:48:50.475Z,1022.57
2019-01-18T09:49:50.413Z,1022.54
2019-01-18T09:50:50.835Z,1022.57
2019-01-18T09:51:50.866Z,1022.57
2019-01-18T09:52:51.367Z,1022.59
2019-01-18T09:53:50.378Z,1022.57
2019-01-18T09:54:50.349Z,1022.55
2019-01-18T09:55:50.659Z,1022.57
2019-01-18T09:56:50.434Z,1022.55
2019-01-18T09:57:51.314Z,1022.52
2019-01-18T09:58:50.863Z,1022.54
2019-01-18T09:59:50.728Z,1022.53
2019-01-18T10:00:50.388Z,1022.57
2019-01-18T10:01:52.393Z,1022.55
2019-01-18T10:02:50.280Z,1022.54
2019-01-18T10:03:52.309Z,1022.55
2019-01-18T10:04:50.573Z,1022.53
2019-01-18T10:05:50.365Z,1022.5
2019-01-18T10:06:50.487Z,1022.5
2019-01-18T10:07:50.716Z,1022.5
2019-01-18T10:08:50.259Z,1022.49
2019-01-18T10:09:51.230Z,1022.44
2019-01-18T10:10:51.105Z,1022.42
2019-01-18T10:11:50.419Z,1022.44
2019-01-18T10:12:51.734Z,1022.46
2019-01-18T10:13:50.313Z,1022.46
2019-01-18T10:14:50.497Z,1022.48
2019-01-18T10:15:50.334Z,1022.47
2019-01-18T10:16:50.627Z,1022.52
2019-01-18T10:17:50.930Z,1022.53
2019-01-18T10:18:50.924Z,1022.55
2019-01-18T10:19:50.334Z,1022.57
2019-01-18T10:20:50.528Z,1022.57
2019-01-18T10:21:52.236Z,1022.57
2019-01-18T10:22:50.996Z,1022.55
2019-01-18T10:23:50.660Z,1022.56
2019-01-18T10:24:50.653Z,1022.56
2019-01-18T10:25:50.711Z,1022.55
2019-01-18T10:26:50.476Z,1022.53
2019-01-18T10:27:50.368Z,1022.55
2019-01-18T10:28:50.833Z,1022.55
2019-01-18T10:29:50.365Z,1022.53
2019-01-18T10:30:50.559Z,1022.54
2019-01-18T10:31:56.470Z,1022.55
2019-01-18T10:32:50.319Z,1022.51
2019-01-18T10:33:50.430Z,1022.5
2019-01-18T10:34:50.461Z,1022.5
2019-01-18T10:35:50.560Z,1022.46
2019-01-18T10:36:50.413Z,1022.48
2019-01-18T10:37:50.272Z,1022.46
2019-01-18T10:38:50.444Z,1022.48
2019-01-18T10:39:50.727Z,1022.48
2019-01-18T10:40:50.727Z,1022.5
2019-01-18T10:41:50.909Z,1022.49
2019-01-18T10:42:50.728Z,1022.45
2019-01-18T10:43:52.304Z,1022.44
2019-01-18T10:44:50.556Z,1022.48
2019-01-18T10:45:52.462Z,1022.44
2019-01-18T10:46:51.391Z,1022.47
2019-01-18T10:47:50.509Z,1022.45
2019-01-18T10:48:50.974Z,1022.48
2019-01-18T10:49:50.590Z,1022.49
2019-01-18T10:50:50.801Z,1022.47
2019-01-18T10:51:51.241Z,1022.5
2019-01-18T10:52:50.378Z,1022.51
2019-01-18T10:53:50.463Z,1022.53
2019-01-18T10:54:50.551Z,1022.51
2019-01-18T10:55:50.323Z,1022.53
2019-01-18T10:56:50.492Z,1022.52
2019-01-18T10:57:50.561Z,1022.51
2019-01-18T10:58:50.746Z,1022.53
2019-01-18T10:59:50.751Z,1022.52
2019-01-18T11:00:50.655Z,1022.55
2019-01-18T11:01:50.348Z,1022.53
2019-01-18T11:02:50.673Z,1022.51
2019-01-18T11:03:50.698Z,1022.52
2019-01-18T11:04:50.563Z,1022.51
2019-01-18T11:05:50.982Z,1022.51
2019-01-18T11:06:50.997Z,1022.54
2019-01-18T11:07:50.693Z,1022.52
2019-01-18T11:08:50.868Z,1022.51
2019-01-18T11:09:50.808Z,1022.51
2019-01-18T11:10:50.618Z,1022.51
2019-01-18T11:11:50.650Z,1022.48
2019-01-18T11:12:50.832Z,1022.51
2019-01-18T11:13:50.589Z,1022.49
2019-01-18T11:14:50.446Z,1022.47
2019-01-18T11:15:51.055Z,1022.45
2019-01-18T11:16:50.646Z,1022.44
2019-01-18T11:17:50.320Z,1022.45
2019-01-18T11:18:50.525Z,1022.44
2019-01-18T11:19:50.390Z,1022.43
2019-01-18T11:20:51.342Z,1022.44
2019-01-18T11:21:50.838Z,1022.44
2019-01-18T11:22:50.628Z,1022.43
2019-01-18T11:23:50.608Z,1022.43
2019-01-18T11:24:50.407Z,1022.45
2019-01-18T11:25:50.593Z,1022.44
2019-01-18T11:26:50.415Z,1022.41
2019-01-18T11:27:51.357Z,1022.4
2019-01-18T11:28:50.813Z,1022.42
2019-01-18T11:29:50.672Z,1022.41
2019-01-18T11:30:50.477Z,1022.41
2019-01-18T11:31:51.792Z,1022.38
2019-01-18T11:32:50.664Z,1022.4
2019-01-18T11:33:50.694Z,1022.39
2019-01-18T11:34:50.903Z,1022.4
2019-01-18T11:35:50.282Z,1022.35
2019-01-18T11:36:50.807Z,1022.36
2019-01-18T11:37:50.435Z,1022.32
2019-01-18T11:38:50.719Z,1022.32
2019-01-18T11:39:50.726Z,1022.31
2019-01-18T11:40:50.758Z,1022.3
2019-01-18T11:41:50.681Z,1022.27
2019-01-18T11:42:50.777Z,1022.24
2019-01-18T11:43:50.769Z,1022.23
2019-01-18T11:44:50.544Z,1022.22
2019-01-18T11:45:50.897Z,1022.24
2019-01-18T11:46:50.956Z,1022.25
2019-01-18T11:47:50.708Z,1022.25
2019-01-18T11:48:50.785Z,1022.24
2019-01-18T11:49:50.415Z,1022.22
2019-01-18T11:50:50.500Z,1022.24
2019-01-18T11:51:50.646Z,1022.25
2019-01-18T11:52:50.285Z,1022.21
2019-01-18T11:53:50.737Z,1022.18
2019-01-18T11:54:50.565Z,1022.18
2019-01-18T11:55:50.635Z,1022.16
2019-01-18T11:56:50.728Z,1022.19
2019-01-18T11:57:51.399Z,1022.14
2019-01-18T11:58:50.751Z,1022.14
2019-01-18T11:59:52.342Z,1022.15
2019-01-18T12:00:50.779Z,1022.17
2019-01-18T12:01:51.469Z,1022.12
2019-01-18T12:02:50.293Z,1022.14
2019-01-18T12:03:50.917Z,1022.11
2019-01-18T12:04:51.200Z,1022.11
2019-01-18T12:05:50.905Z,1022.11
2019-01-18T12:06:50.537Z,1022.09
2019-01-18T12:07:50.434Z,1022.1
2019-01-18T12:08:50.578Z,1022.12